Time;durP1;ratioP1;P1;durP2;ratioP2;P2;SDS_P1;SDS_P2;PMS_P1;PMS_P2;Temp;Humidity;BMP_temperature;BMP_pressure;BME280_temperature;BME280_humidity;BME280_pressure;Samples;Min_cycle;Max_cycle;Signal;HPM_P1;HPM_P2
2022/11/18 00:00:38;;;;;;;23.95;14.90;;;;;;;;;;5046914;28;20125;-70
2022/11/18 00:03:05;;;;;;;20.83;15.13;;;;;;;;;;5052866;28;20406;-70
2022/11/18 00:05:34;;;;;;;22.50;15.32;;;;;;;;;;5034820;28;20048;-70
2022/11/18 00:08:01;;;;;;;21.20;14.45;;;;;;;;;;5056799;28;20063;-70
2022/11/18 00:10:28;;;;;;;20.55;13.85;;;;;;;;;;5034403;28;20728;-70
2022/11/18 00:16:00;;;;;;;21.58;14.18;;;;;;;;;;4971977;28;20101;-70
2022/11/18 00:18:27;;;;;;;26.95;16.48;;;;;;;;;;4968107;28;20092;-70
2022/11/18 00:20:56;;;;;;;29.17;17.70;;;;;;;;;;5005818;28;20053;-70
2022/11/18 00:23:23;;;;;;;19.67;14.82;;;;;;;;;;5050996;28;20052;-70
2022/11/18 00:25:50;;;;;;;22.67;15.75;;;;;;;;;;5050593;28;20068;-70
2022/11/18 00:28:18;;;;;;;23.52;15.85;;;;;;;;;;5046682;28;20107;-70
2022/11/18 00:30:45;;;;;;;22.83;15.70;;;;;;;;;;5047718;28;20057;-70
2022/11/18 00:33:12;;;;;;;24.33;16.95;;;;;;;;;;5048988;28;20049;-70
2022/11/18 00:35:39;;;;;;;23.15;16.40;;;;;;;;;;5052087;28;20060;-70
2022/11/18 00:38:08;;;;;;;25.10;18.02;;;;;;;;;;5049178;28;20473;-70
2022/11/18 00:40:35;;;;;;;25.85;17.83;;;;;;;;;;5045844;28;20060;-70
2022/11/18 00:43:01;;;;;;;21.50;15.95;;;;;;;;;;5048855;28;20045;-70
2022/11/18 00:45:28;;;;;;;27.52;17.92;;;;;;;;;;5047245;28;20045;-70
2022/11/18 00:47:56;;;;;;;26.65;18.42;;;;;;;;;;5048426;28;20406;-70
2022/11/18 00:50:23;;;;;;;29.38;19.63;;;;;;;;;;5047596;28;20049;-70
2022/11/18 00:52:50;;;;;;;35.10;20.60;;;;;;;;;;5049859;28;20053;-70
2022/11/18 00:55:19;;;;;;;24.50;18.15;;;;;;;;;;5050180;28;20055;-70
2022/11/18 00:57:47;;;;;;;31.02;20.02;;;;;;;;;;5050229;28;20080;-70
2022/11/18 01:00:15;;;;;;;25.13;18.55;;;;;;;;;;5052465;28;20049;-70
2022/11/18 01:02:42;;;;;;;27.17;18.42;;;;;;;;;;5049152;28;20131;-70
2022/11/18 01:05:10;;;;;;;28.42;18.55;;;;;;;;;;5052557;28;20527;-70
2022/11/18 01:07:37;;;;;;;29.52;20.13;;;;;;;;;;5052788;28;20657;-70
2022/11/18 01:10:04;;;;;;;33.15;21.92;;;;;;;;;;5043824;28;20055;-70
2022/11/18 01:15:18;;;;;;;33.53;21.23;;;;;;;;;;5049566;28;20139;-70
2022/11/18 01:17:45;;;;;;;33.55;22.45;;;;;;;;;;5048065;28;20049;-70
2022/11/18 01:20:13;;;;;;;31.83;21.90;;;;;;;;;;5049221;28;20064;-70
2022/11/18 01:22:40;;;;;;;37.75;23.48;;;;;;;;;;5044621;28;20174;-70
2022/11/18 01:25:07;;;;;;;33.35;23.17;;;;;;;;;;5049971;28;20049;-70
2022/11/18 01:27:36;;;;;;;41.05;25.50;;;;;;;;;;5052298;28;20169;-70
2022/11/18 01:30:04;;;;;;;45.20;26.85;;;;;;;;;;5049374;28;20041;-70
2022/11/18 01:32:31;;;;;;;54.05;27.77;;;;;;;;;;5049505;28;20049;-69
2022/11/18 01:34:58;;;;;;;49.47;26.65;;;;;;;;;;5048892;28;20064;-70
2022/11/18 01:37:25;;;;;;;47.47;27.73;;;;;;;;;;5045317;28;20156;-70
2022/11/18 01:39:52;;;;;;;54.10;27.98;;;;;;;;;;5046902;28;20404;-70
2022/11/18 01:42:20;;;;;;;38.65;26.77;;;;;;;;;;5049123;28;20052;-70
2022/11/18 01:45:03;;;;;;;43.08;26.50;;;;;;;;;;5050145;28;20052;-70
2022/11/18 01:47:30;;;;;;;;;;;;;;;;;;5048163;28;20147;-69
2022/11/18 01:49:59;;;;;;;45.25;27.80;;;;;;;;;;5049245;28;19928;-70
2022/11/18 01:52:27;;;;;;;46.13;27.80;;;;;;;;;;5045761;28;20041;-70
2022/11/18 01:54:56;;;;;;;41.72;26.80;;;;;;;;;;5047152;28;20045;-70
2022/11/18 01:57:26;;;;;;;44.83;26.63;;;;;;;;;;5047314;28;20053;-70
2022/11/18 01:59:55;;;;;;;44.70;26.35;;;;;;;;;;5051403;28;20305;-70
2022/11/18 02:02:24;;;;;;;47.55;27.25;;;;;;;;;;5050046;28;20048;-70
2022/11/18 02:04:52;;;;;;;47.15;27.08;;;;;;;;;;5047823;28;20041;-70
2022/11/18 02:07:20;;;;;;;56.85;29.10;;;;;;;;;;5040446;28;20053;-70
2022/11/18 02:09:47;;;;;;;46.08;26.45;;;;;;;;;;5026585;28;20049;-70
2022/11/18 02:12:15;;;;;;;45.75;26.10;;;;;;;;;;5044859;28;20411;-70
2022/11/18 02:14:43;;;;;;;43.97;25.60;;;;;;;;;;5029671;28;20053;-70
2022/11/18 02:17:15;;;;;;;42.20;26.30;;;;;;;;;;5035850;28;20059;-70
2022/11/18 02:19:51;;;;;;;39.85;24.83;;;;;;;;;;5041661;28;20408;-70
2022/11/18 02:22:26;;;;;;;47.60;26.67;;;;;;;;;;5043747;28;20073;-70
2022/11/18 02:24:57;;;;;;;51.97;25.52;;;;;;;;;;5045757;28;20056;-70
2022/11/18 02:27:33;;;;;;;49.78;26.48;;;;;;;;;;5027326;28;20096;-70
2022/11/18 02:30:03;;;;;;;49.15;26.73;;;;;;;;;;5043645;28;20052;-70
2022/11/18 02:32:32;;;;;;;44.55;26.10;;;;;;;;;;5043265;28;20049;-70
2022/11/18 02:35:02;;;;;;;55.83;27.98;;;;;;;;;;5045337;28;20052;-70
2022/11/18 02:37:35;;;;;;;46.13;26.13;;;;;;;;;;5048323;28;20053;-70
2022/11/18 02:40:06;;;;;;;44.35;26.35;;;;;;;;;;5050072;28;20052;-70
2022/11/18 02:42:35;;;;;;;51.65;26.60;;;;;;;;;;5043830;28;20053;-70
2022/11/18 02:45:06;;;;;;;54.92;27.10;;;;;;;;;;5051801;28;20049;-70
2022/11/18 02:47:35;;;;;;;58.97;27.38;;;;;;;;;;5045721;28;20045;-70
2022/11/18 02:50:03;;;;;;;46.25;26.17;;;;;;;;;;5052964;28;20553;-70
2022/11/18 02:52:31;;;;;;;50.10;26.98;;;;;;;;;;5048517;28;20044;-70
2022/11/18 02:55:00;;;;;;;52.20;27.42;;;;;;;;;;5045527;28;20045;-70
2022/11/18 02:57:28;;;;;;;53.55;27.25;;;;;;;;;;5049490;28;20447;-70
2022/11/18 02:59:56;;;;;;;61.70;27.80;;;;;;;;;;5035172;28;20056;-70
2022/11/18 03:02:24;;;;;;;50.88;27.17;;;;;;;;;;5041891;28;20140;-70
2022/11/18 03:04:53;;;;;;;56.70;28.48;;;;;;;;;;5049426;28;20519;-70
2022/11/18 03:07:23;;;;;;;54.53;28.92;;;;;;;;;;5032067;28;20068;-70
2022/11/18 03:09:52;;;;;;;54.53;28.55;;;;;;;;;;5045081;28;20460;-70
2022/11/18 03:12:24;;;;;;;67.07;29.17;;;;;;;;;;5048306;28;20057;-70
2022/11/18 03:14:57;;;;;;;56.13;28.58;;;;;;;;;;5046354;28;20523;-70
2022/11/18 03:17:35;;;;;;;54.28;27.40;;;;;;;;;;5046106;28;20044;-70
2022/11/18 03:20:08;;;;;;;59.47;28.30;;;;;;;;;;5047336;28;20061;-70
2022/11/18 03:22:38;;;;;;;56.10;27.52;;;;;;;;;;5042236;28;20060;-70
2022/11/18 03:25:06;;;;;;;60.53;28.95;;;;;;;;;;5045226;28;20064;-70
2022/11/18 03:27:36;;;;;;;60.60;29.08;;;;;;;;;;5047835;28;20045;-70
2022/11/18 03:30:06;;;;;;;61.50;28.40;;;;;;;;;;5037225;28;20045;-70
2022/11/18 03:32:38;;;;;;;54.60;27.60;;;;;;;;;;5028627;28;20057;-70
2022/11/18 03:35:08;;;;;;;55.08;27.85;;;;;;;;;;5048254;28;20402;-70
2022/11/18 03:37:35;;;;;;;62.83;29.30;;;;;;;;;;5045143;28;20053;-70
2022/11/18 03:40:05;;;;;;;58.08;28.08;;;;;;;;;;5049778;28;20063;-70
2022/11/18 03:42:35;;;;;;;53.92;27.60;;;;;;;;;;5043757;28;20045;-70
2022/11/18 03:45:05;;;;;;;52.42;27.05;;;;;;;;;;5045985;28;20495;-70
2022/11/18 03:47:34;;;;;;;55.13;27.70;;;;;;;;;;5045338;28;20057;-70
2022/11/18 03:50:06;;;;;;;54.63;27.25;;;;;;;;;;5045864;28;20052;-70
2022/11/18 03:52:34;;;;;;;75.82;29.10;;;;;;;;;;5045091;28;20678;-70
2022/11/18 03:55:03;;;;;;;53.78;26.40;;;;;;;;;;5044912;28;20067;-70
2022/11/18 03:57:33;;;;;;;60.15;28.20;;;;;;;;;;5043895;28;20052;-70
2022/11/18 04:00:03;;;;;;;48.67;26.92;;;;;;;;;;5045272;28;20049;-70
2022/11/18 04:02:31;;;;;;;50.88;26.52;;;;;;;;;;5049310;28;20057;-70
2022/11/18 04:05:00;;;;;;;56.45;27.85;;;;;;;;;;5054451;28;20052;-70
2022/11/18 04:07:33;;;;;;;52.20;28.02;;;;;;;;;;5054738;28;20044;-70
2022/11/18 04:10:03;;;;;;;51.35;27.33;;;;;;;;;;5051791;28;20048;-70
2022/11/18 04:12:32;;;;;;;51.08;26.67;;;;;;;;;;5051899;28;20139;-70
2022/11/18 04:14:59;;;;;;;57.22;28.05;;;;;;;;;;5047105;28;20040;-70
2022/11/18 04:17:28;;;;;;;55.63;27.65;;;;;;;;;;5047528;28;20056;-70
2022/11/18 04:19:55;;;;;;;54.33;27.45;;;;;;;;;;5028367;28;20050;-70
2022/11/18 04:22:22;;;;;;;50.75;25.98;;;;;;;;;;5046944;28;20057;-70
2022/11/18 04:24:51;;;;;;;48.78;27.05;;;;;;;;;;5044867;28;20362;-70
2022/11/18 04:27:18;;;;;;;49.67;26.95;;;;;;;;;;5046111;28;20122;-70
2022/11/18 04:29:46;;;;;;;57.35;27.67;;;;;;;;;;5047233;28;20052;-70
2022/11/18 04:32:13;;;;;;;51.33;26.70;;;;;;;;;;5047829;28;20053;-70
2022/11/18 04:34:40;;;;;;;48.35;26.50;;;;;;;;;;5046899;28;20059;-70
2022/11/18 04:37:07;;;;;;;56.30;27.95;;;;;;;;;;5027436;28;20041;-70
2022/11/18 04:39:34;;;;;;;50.83;26.55;;;;;;;;;;5046022;28;20044;-70
2022/11/18 04:42:03;;;;;;;51.35;26.58;;;;;;;;;;5048252;28;20097;-70
2022/11/18 04:44:31;;;;;;;57.80;27.20;;;;;;;;;;5046704;28;20049;-70
2022/11/18 04:46:59;;;;;;;51.60;27.00;;;;;;;;;;5046040;28;20045;-70
2022/11/18 04:49:27;;;;;;;61.17;27.98;;;;;;;;;;5045591;28;20045;-70
2022/11/18 04:51:54;;;;;;;53.75;26.80;;;;;;;;;;5047482;28;20054;-70
2022/11/18 04:54:22;;;;;;;48.60;27.10;;;;;;;;;;5046182;28;20496;-70
2022/11/18 04:56:49;;;;;;;56.88;27.25;;;;;;;;;;5047237;28;20049;-70
2022/11/18 04:59:19;;;;;;;48.03;25.70;;;;;;;;;;5046718;28;20057;-70
2022/11/18 05:01:47;;;;;;;49.85;26.38;;;;;;;;;;5050387;28;20060;-70
2022/11/18 05:04:14;;;;;;;52.55;27.02;;;;;;;;;;5052598;28;20048;-70
2022/11/18 05:06:41;;;;;;;49.67;26.23;;;;;;;;;;5024224;28;20060;-70
2022/11/18 05:09:09;;;;;;;51.78;26.77;;;;;;;;;;5048856;28;20045;-70
2022/11/18 05:14:37;;;;;;;43.17;25.27;;;;;;;;;;4983132;28;20050;-70
2022/11/18 05:17:05;;;;;;;54.38;26.52;;;;;;;;;;4983620;28;20053;-70
2022/11/18 05:19:32;;;;;;;47.60;25.95;;;;;;;;;;5012410;28;20056;-70
2022/11/18 05:22:00;;;;;;;51.15;27.08;;;;;;;;;;5028263;28;20156;-70
2022/11/18 05:24:27;;;;;;;49.05;27.13;;;;;;;;;;5042900;28;20144;-70
2022/11/18 05:26:55;;;;;;;50.30;26.13;;;;;;;;;;5045821;28;20111;-70
2022/11/18 05:29:23;;;;;;;49.33;26.35;;;;;;;;;;5047302;28;20420;-70
2022/11/18 05:31:51;;;;;;;45.05;26.65;;;;;;;;;;5046302;28;20056;-70
2022/11/18 05:34:18;;;;;;;51.10;25.77;;;;;;;;;;5047541;28;20053;-70
2022/11/18 05:36:46;;;;;;;52.08;26.75;;;;;;;;;;5041632;28;20045;-70
2022/11/18 05:39:13;;;;;;;46.97;26.33;;;;;;;;;;5029285;28;20059;-70
2022/11/18 05:44:25;;;;;;;52.03;26.90;;;;;;;;;;5041654;28;20767;-70
2022/11/18 05:46:54;;;;;;;51.95;26.40;;;;;;;;;;5027934;28;20055;-70
2022/11/18 05:49:21;;;;;;;42.50;25.38;;;;;;;;;;5046549;28;20052;-70
2022/11/18 05:51:48;;;;;;;43.17;24.10;;;;;;;;;;5041212;28;20049;-70
2022/11/18 05:54:17;;;;;;;45.03;25.13;;;;;;;;;;5046007;28;20384;-70
2022/11/18 05:56:45;;;;;;;45.13;24.58;;;;;;;;;;5022694;28;20050;-70
2022/11/18 05:59:12;;;;;;;51.47;27.00;;;;;;;;;;5034414;28;20049;-70
2022/11/18 06:01:43;;;;;;;44.30;25.65;;;;;;;;;;5039702;28;20079;-71
2022/11/18 06:04:14;;;;;;;46.47;25.65;;;;;;;;;;5032684;28;20057;-71
2022/11/18 06:06:42;;;;;;;54.20;28.35;;;;;;;;;;5051962;28;20048;-70
2022/11/18 06:09:11;;;;;;;46.08;25.27;;;;;;;;;;5048475;28;20060;-71
2022/11/18 06:11:40;;;;;;;48.80;24.63;;;;;;;;;;5029647;28;20088;-71
2022/11/18 06:14:10;;;;;;;42.13;23.77;;;;;;;;;;5040676;28;20690;-70
2022/11/18 06:16:40;;;;;;;37.00;23.33;;;;;;;;;;5047711;28;20052;-70
2022/11/18 06:19:08;;;;;;;41.08;21.58;;;;;;;;;;5028499;28;20049;-70
2022/11/18 06:21:36;;;;;;;44.83;23.35;;;;;;;;;;5031749;28;20531;-71
2022/11/18 06:24:04;;;;;;;40.95;22.45;;;;;;;;;;5048529;28;20045;-70
2022/11/18 06:26:31;;;;;;;41.90;22.52;;;;;;;;;;5049977;28;20137;-71
2022/11/18 06:28:59;;;;;;;44.65;23.48;;;;;;;;;;5032725;28;20056;-71
2022/11/18 06:31:26;;;;;;;45.20;23.80;;;;;;;;;;5049133;28;20526;-71
2022/11/18 06:33:53;;;;;;;40.55;22.85;;;;;;;;;;5046153;28;20041;-71
2022/11/18 06:36:20;;;;;;;44.90;22.17;;;;;;;;;;5051580;28;20055;-71
2022/11/18 06:38:49;;;;;;;39.67;22.48;;;;;;;;;;5048044;28;20049;-71
2022/11/18 06:41:16;;;;;;;40.15;22.48;;;;;;;;;;5043735;28;20743;-71
2022/11/18 06:43:43;;;;;;;41.33;22.38;;;;;;;;;;5041399;28;20584;-71
2022/11/18 06:48:58;;;;;;;38.15;22.52;;;;;;;;;;5018325;28;20178;-70
2022/11/18 06:51:26;;;;;;;40.28;21.90;;;;;;;;;;5048896;28;20135;-71
2022/11/18 06:53:55;;;;;;;40.55;22.23;;;;;;;;;;5043238;28;20048;-71
2022/11/18 06:56:23;;;;;;;43.00;22.15;;;;;;;;;;5042892;28;20036;-71
2022/11/18 06:58:53;;;;;;;42.80;23.48;;;;;;;;;;5025898;28;20403;-71
2022/11/18 07:01:22;;;;;;;47.35;22.80;;;;;;;;;;5026549;28;20057;-71
2022/11/18 07:03:49;;;;;;;42.00;22.33;;;;;;;;;;5024034;28;20068;-71
2022/11/18 07:06:18;;;;;;;44.85;23.05;;;;;;;;;;5046939;28;20075;-71
2022/11/18 07:08:45;;;;;;;44.08;22.48;;;;;;;;;;5024988;28;20297;-71
2022/11/18 07:11:14;;;;;;;40.10;22.13;;;;;;;;;;5046173;28;20392;-70
2022/11/18 07:13:41;;;;;;;40.00;21.45;;;;;;;;;;5044699;28;20488;-71
2022/11/18 07:16:10;;;;;;;44.70;22.98;;;;;;;;;;5041695;28;20049;-71
2022/11/18 07:18:38;;;;;;;38.40;21.25;;;;;;;;;;5027668;28;20049;-74
2022/11/18 07:21:06;;;;;;;43.95;24.02;;;;;;;;;;5031640;28;20087;-71
2022/11/18 07:23:34;;;;;;;40.80;22.05;;;;;;;;;;5042848;28;20050;-72
2022/11/18 07:26:01;;;;;;;37.92;21.95;;;;;;;;;;5043756;28;20072;-71
2022/11/18 07:28:30;;;;;;;42.92;24.20;;;;;;;;;;5044236;28;20056;-71
2022/11/18 07:31:01;;;;;;;40.35;22.20;;;;;;;;;;5044100;28;20049;-72
2022/11/18 07:33:29;;;;;;;43.50;21.83;;;;;;;;;;5045901;28;20136;-72
2022/11/18 07:35:56;;;;;;;43.30;22.23;;;;;;;;;;5047782;28;20061;-71
2022/11/18 07:38:23;;;;;;;42.22;21.45;;;;;;;;;;5044488;28;20415;-72
2022/11/18 07:40:50;;;;;;;38.63;21.42;;;;;;;;;;5048162;28;20053;-72
2022/11/18 07:43:17;;;;;;;38.35;20.58;;;;;;;;;;5047725;28;20060;-72
2022/11/18 07:45:46;;;;;;;38.90;21.13;;;;;;;;;;5047499;28;20045;-71
2022/11/18 07:48:13;;;;;;;43.72;21.75;;;;;;;;;;5048789;28;20057;-71
2022/11/18 07:50:40;;;;;;;39.38;22.17;;;;;;;;;;5024436;28;20045;-70
2022/11/18 07:53:08;;;;;;;39.42;21.80;;;;;;;;;;5032195;28;20059;-71
2022/11/18 07:55:35;;;;;;;49.20;23.27;;;;;;;;;;5047615;28;20407;-72
2022/11/18 07:58:02;;;;;;;39.95;21.83;;;;;;;;;;5051491;28;20502;-72
2022/11/18 08:00:29;;;;;;;41.35;21.33;;;;;;;;;;5047758;28;20052;-72
2022/11/18 08:02:58;;;;;;;46.25;22.90;;;;;;;;;;5047621;28;20057;-72
2022/11/18 08:05:26;;;;;;;43.35;21.00;;;;;;;;;;5049120;28;20053;-71
2022/11/18 08:07:53;;;;;;;40.67;20.88;;;;;;;;;;5048750;28;20499;-73
2022/11/18 08:10:20;;;;;;;37.85;20.45;;;;;;;;;;5047575;28;20045;-72
2022/11/18 08:12:47;;;;;;;34.88;19.20;;;;;;;;;;5049713;28;20049;-71
2022/11/18 08:15:15;;;;;;;38.92;20.30;;;;;;;;;;5046535;28;20057;-74
2022/11/18 08:17:42;;;;;;;48.85;22.50;;;;;;;;;;5045577;28;20139;-73
2022/11/18 08:20:11;;;;;;;37.55;19.55;;;;;;;;;;5045181;28;20114;-70
2022/11/18 08:22:39;;;;;;;35.58;18.38;;;;;;;;;;5045690;28;20419;-70
2022/11/18 08:25:07;;;;;;;37.50;20.23;;;;;;;;;;5025141;28;20139;-71
2022/11/18 08:27:34;;;;;;;37.83;19.85;;;;;;;;;;5050238;28;20056;-71
2022/11/18 08:30:01;;;;;;;42.97;20.60;;;;;;;;;;5049632;28;20100;-72
2022/11/18 08:32:28;;;;;;;41.30;19.45;;;;;;;;;;5054577;28;20056;-71
2022/11/18 08:34:56;;;;;;;44.58;20.48;;;;;;;;;;5035333;28;20053;-71
2022/11/18 08:37:24;;;;;;;42.15;20.00;;;;;;;;;;5053414;28;20143;-70
2022/11/18 08:39:51;;;;;;;46.30;20.95;;;;;;;;;;5045584;28;20056;-70
2022/11/18 08:42:21;;;;;;;45.65;21.73;;;;;;;;;;5052118;28;20135;-71
2022/11/18 08:44:48;;;;;;;42.80;21.10;;;;;;;;;;5045552;28;20134;-70
2022/11/18 08:47:15;;;;;;;43.28;21.35;;;;;;;;;;5033690;28;20052;-70
2022/11/18 08:49:43;;;;;;;43.00;20.33;;;;;;;;;;5029222;28;20072;-70
2022/11/18 08:52:10;;;;;;;45.72;21.63;;;;;;;;;;5042285;28;20495;-71
2022/11/18 08:54:39;;;;;;;38.55;19.80;;;;;;;;;;5046345;28;20049;-72
2022/11/18 08:57:06;;;;;;;47.25;20.95;;;;;;;;;;5027009;28;20067;-73
2022/11/18 08:59:33;;;;;;;50.15;21.65;;;;;;;;;;5028645;28;20053;-74
2022/11/18 09:02:00;;;;;;;41.28;20.50;;;;;;;;;;5027542;28;20051;-73
2022/11/18 09:04:28;;;;;;;38.55;20.00;;;;;;;;;;5030131;28;20067;-72
2022/11/18 09:06:55;;;;;;;41.58;20.90;;;;;;;;;;5047157;28;20053;-76
2022/11/18 09:09:22;;;;;;;44.28;21.05;;;;;;;;;;5028561;28;20056;-72
2022/11/18 09:11:51;;;;;;;44.63;20.50;;;;;;;;;;5048160;28;20132;-73
2022/11/18 09:14:18;;;;;;;56.05;21.17;;;;;;;;;;5049666;28;20041;-75
2022/11/18 09:16:45;;;;;;;43.58;19.48;;;;;;;;;;5036646;28;20048;-74
2022/11/18 09:19:13;;;;;;;37.13;18.80;;;;;;;;;;5034442;28;20052;-74
2022/11/18 09:21:40;;;;;;;38.38;18.70;;;;;;;;;;5048961;28;20057;-75
2022/11/18 09:24:09;;;;;;;34.15;17.52;;;;;;;;;;5027891;28;20131;-73
2022/11/18 09:26:37;;;;;;;39.53;18.20;;;;;;;;;;5052671;28;20084;-73
2022/11/18 09:29:05;;;;;;;36.15;17.38;;;;;;;;;;5026716;28;20068;-73
2022/11/18 09:31:33;;;;;;;38.65;18.60;;;;;;;;;;5035486;28;21197;-76
2022/11/18 09:34:00;;;;;;;40.15;18.35;;;;;;;;;;5027162;28;20045;-76
2022/11/18 09:36:28;;;;;;;41.85;18.88;;;;;;;;;;5032353;28;21106;-74
2022/11/18 09:38:55;;;;;;;35.22;17.55;;;;;;;;;;5029030;28;20083;-74
2022/11/18 09:41:27;;;;;;;34.00;18.08;;;;;;;;;;5030336;28;20060;-75
2022/11/18 09:44:01;;;;;;;38.45;17.98;;;;;;;;;;5027615;28;20384;-75
2022/11/18 09:46:35;;;;;;;28.23;16.05;;;;;;;;;;5026999;28;20526;-75
2022/11/18 09:49:13;;;;;;;36.72;16.42;;;;;;;;;;5026227;28;20061;-75
2022/11/18 09:51:41;;;;;;;30.63;15.43;;;;;;;;;;5026854;28;20392;-75
2022/11/18 09:54:11;;;;;;;35.92;16.90;;;;;;;;;;5031231;28;20074;-75
2022/11/18 09:56:38;;;;;;;28.30;15.32;;;;;;;;;;5026911;28;20049;-75
2022/11/18 09:59:06;;;;;;;27.65;14.68;;;;;;;;;;5027761;28;20065;-75
2022/11/18 10:01:36;;;;;;;33.30;14.27;;;;;;;;;;5024485;28;20045;-75
2022/11/18 10:04:04;;;;;;;27.45;14.82;;;;;;;;;;5028355;28;20180;-74
2022/11/18 10:06:33;;;;;;;26.45;14.27;;;;;;;;;;5027707;28;20057;-75
2022/11/18 10:09:07;;;;;;;26.48;13.68;;;;;;;;;;5045586;28;20178;-72
2022/11/18 10:11:38;;;;;;;21.25;11.98;;;;;;;;;;5029198;28;20063;-75
2022/11/18 10:14:13;;;;;;;23.40;12.68;;;;;;;;;;5032939;28;20455;-75
2022/11/18 10:16:45;;;;;;;23.55;13.00;;;;;;;;;;5028593;28;20052;-75
2022/11/18 10:19:20;;;;;;;22.27;11.90;;;;;;;;;;5028713;28;20056;-75
2022/11/18 10:21:52;;;;;;;24.38;12.40;;;;;;;;;;5050603;28;20049;-75
2022/11/18 10:24:20;;;;;;;25.27;12.55;;;;;;;;;;5028389;28;20163;-76
2022/11/18 10:26:47;;;;;;;22.88;13.55;;;;;;;;;;5046474;28;20045;-75
2022/11/18 10:29:14;;;;;;;23.35;13.07;;;;;;;;;;5030634;28;20135;-76
2022/11/18 10:32:00;;;;;;;25.45;13.50;;;;;;;;;;5027105;28;20060;-76
2022/11/18 10:34:27;;;;;;;26.63;13.75;;;;;;;;;;5027994;28;20060;-75
2022/11/18 10:36:59;;;;;;;20.45;12.45;;;;;;;;;;5036194;28;20499;-75
2022/11/18 10:39:26;;;;;;;22.40;12.52;;;;;;;;;;5030957;28;20107;-76
2022/11/18 10:41:55;;;;;;;23.52;12.50;;;;;;;;;;5028727;28;20478;-75
2022/11/18 10:44:30;;;;;;;22.25;12.60;;;;;;;;;;5041569;28;20809;-75
2022/11/18 10:47:15;;;;;;;22.23;10.95;;;;;;;;;;5037300;28;20049;-76
2022/11/18 10:49:42;;;;;;;23.75;12.73;;;;;;;;;;5034229;28;20045;-74
2022/11/18 10:52:10;;;;;;;18.58;10.75;;;;;;;;;;5034090;28;20418;-76
2022/11/18 10:54:38;;;;;;;16.63;10.35;;;;;;;;;;5030782;28;20458;-75
2022/11/18 10:57:06;;;;;;;17.50;10.05;;;;;;;;;;5029733;28;20047;-76
2022/11/18 10:59:35;;;;;;;17.33;10.88;;;;;;;;;;5027756;28;20053;-75
2022/11/18 11:02:17;;;;;;;19.98;9.85;;;;;;;;;;5026262;28;20057;-75
2022/11/18 11:04:44;;;;;;;20.70;11.00;;;;;;;;;;5026765;28;20102;-75
2022/11/18 11:07:16;;;;;;;20.40;11.48;;;;;;;;;;5023654;28;20060;-74
2022/11/18 11:09:44;;;;;;;27.88;10.57;;;;;;;;;;5030344;28;20048;-75
2022/11/18 11:12:14;;;;;;;20.75;11.25;;;;;;;;;;5031042;28;20052;-75
2022/11/18 11:14:45;;;;;;;22.60;10.30;;;;;;;;;;5023063;28;20053;-75
2022/11/18 11:17:15;;;;;;;20.70;10.77;;;;;;;;;;5030876;28;20074;-75
2022/11/18 11:19:48;;;;;;;23.83;10.48;;;;;;;;;;5028784;28;20064;-72
2022/11/18 11:22:15;;;;;;;21.20;10.63;;;;;;;;;;5029240;28;20146;-75
2022/11/18 11:24:43;;;;;;;16.50;9.02;;;;;;;;;;5024547;28;20136;-75
2022/11/18 11:27:18;;;;;;;19.45;10.18;;;;;;;;;;5030312;28;20051;-77
2022/11/18 11:29:56;;;;;;;17.27;9.88;;;;;;;;;;5038551;28;20045;-78
2022/11/18 11:32:33;;;;;;;19.02;10.15;;;;;;;;;;5030739;28;20069;-74
2022/11/18 11:35:05;;;;;;;17.65;9.70;;;;;;;;;;5033945;28;20141;-76
2022/11/18 11:37:37;;;;;;;18.48;9.68;;;;;;;;;;5029929;28;20128;-75
2022/11/18 11:40:15;;;;;;;16.75;9.50;;;;;;;;;;5035804;28;20157;-76
2022/11/18 11:42:46;;;;;;;18.63;10.50;;;;;;;;;;5029775;28;20058;-76
2022/11/18 11:45:18;;;;;;;19.42;10.02;;;;;;;;;;5034288;28;20432;-75
2022/11/18 11:47:55;;;;;;;16.30;9.55;;;;;;;;;;5025370;28;20063;-77
2022/11/18 11:50:28;;;;;;;17.13;10.25;;;;;;;;;;5031074;28;20063;-74
2022/11/18 11:53:08;;;;;;;18.43;9.90;;;;;;;;;;5040054;28;20048;-76
2022/11/18 11:55:39;;;;;;;18.95;9.80;;;;;;;;;;5020056;28;20496;-76
2022/11/18 11:58:18;;;;;;;16.00;9.45;;;;;;;;;;5025591;28;20048;-76
2022/11/18 12:00:49;;;;;;;13.88;8.85;;;;;;;;;;5026470;28;20048;-77
2022/11/18 12:03:29;;;;;;;17.38;8.90;;;;;;;;;;5024328;28;20179;-76
2022/11/18 12:05:57;;;;;;;15.77;9.02;;;;;;;;;;5023991;28;20052;-76
2022/11/18 12:08:25;;;;;;;21.13;8.98;;;;;;;;;;5031926;28;20068;-76
2022/11/18 12:10:54;;;;;;;18.88;9.68;;;;;;;;;;5026159;28;20131;-75
2022/11/18 12:13:25;;;;;;;15.73;9.77;;;;;;;;;;5022058;28;20823;-77
2022/11/18 12:16:02;;;;;;;15.73;8.52;;;;;;;;;;5028582;28;20053;-75
2022/11/18 12:18:35;;;;;;;15.45;8.65;;;;;;;;;;5027463;28;20048;-75
2022/11/18 12:21:03;;;;;;;14.82;7.90;;;;;;;;;;5033618;28;20057;-76
2022/11/18 12:23:31;;;;;;;14.07;8.52;;;;;;;;;;5028362;28;20305;-77
2022/11/18 12:26:03;;;;;;;14.15;8.43;;;;;;;;;;5026777;28;20478;-76
2022/11/18 12:28:31;;;;;;;16.38;9.45;;;;;;;;;;5030714;28;20057;-74
2022/11/18 12:31:17;;;;;;;14.90;9.20;;;;;;;;;;5028288;28;20072;-76
2022/11/18 12:33:47;;;;;;;12.98;8.13;;;;;;;;;;5030163;28;20065;-76
2022/11/18 12:36:25;;;;;;;16.35;8.70;;;;;;;;;;5029722;28;20052;-76
2022/11/18 12:38:53;;;;;;;16.98;8.15;;;;;;;;;;5040831;28;20044;-77
2022/11/18 12:44:23;;;;;;;14.48;8.43;;;;;;;;;;5019244;28;20083;-75
2022/11/18 12:46:51;;;;;;;17.63;8.77;;;;;;;;;;5048081;28;20052;-75
2022/11/18 12:49:37;;;;;;;16.77;8.27;;;;;;;;;;5027785;28;20460;-73
2022/11/18 12:52:06;;;;;;;17.08;9.13;;;;;;;;;;5028265;28;20048;-75
2022/11/18 12:54:35;;;;;;;16.95;9.32;;;;;;;;;;5027169;28;20067;-75
2022/11/18 12:57:04;;;;;;;15.13;9.68;;;;;;;;;;5043241;28;20305;-75
2022/11/18 12:59:33;;;;;;;17.98;10.82;;;;;;;;;;5028708;28;20048;-77
2022/11/18 13:02:16;;;;;;;18.00;10.88;;;;;;;;;;5028831;28;20419;-75
2022/11/18 13:04:43;;;;;;;20.85;11.65;;;;;;;;;;5027151;28;20045;-78
2022/11/18 13:08:11;;;;;;;21.23;11.63;;;;;;;;;;5024578;28;20668;-74
2022/11/18 13:10:01;;;;;;;20.13;12.50;;;;;;;;;;5026537;28;20076;-76
2022/11/18 13:12:31;;;;;;;24.17;13.38;;;;;;;;;;5025831;28;20056;-77
2022/11/18 13:17:53;;;;;;;22.45;12.68;;;;;;;;;;5031911;28;20060;-77
2022/11/18 13:20:22;;;;;;;23.75;12.48;;;;;;;;;;5032929;28;20052;-75
2022/11/18 13:25:39;;;;;;;25.13;13.15;;;;;;;;;;5034170;28;20053;-77
2022/11/18 13:28:12;;;;;;;22.80;12.40;;;;;;;;;;5025363;28;20056;-76
2022/11/18 13:30:45;;;;;;;21.77;12.90;;;;;;;;;;5033172;28;20687;-75
2022/11/18 13:33:13;;;;;;;22.90;12.63;;;;;;;;;;5031379;28;20438;-78
2022/11/18 13:35:41;;;;;;;20.73;12.02;;;;;;;;;;5029665;28;20052;-76
2022/11/18 13:38:20;;;;;;;20.75;12.05;;;;;;;;;;5028584;28;20049;-76
2022/11/18 13:41:03;;;;;;;20.40;11.45;;;;;;;;;;5045590;28;20348;-76
2022/11/18 13:43:31;;;;;;;21.30;10.35;;;;;;;;;;5041048;28;20110;-74
2022/11/18 13:45:59;;;;;;;16.23;9.65;;;;;;;;;;5029171;28;20053;-76
2022/11/18 13:48:27;;;;;;;17.02;9.95;;;;;;;;;;5026221;28;20053;-76
2022/11/18 13:50:56;;;;;;;19.73;10.68;;;;;;;;;;5025306;28;20700;-76
2022/11/18 13:53:29;;;;;;;20.00;10.65;;;;;;;;;;5030850;28;20937;-76
2022/11/18 13:56:00;;;;;;;17.45;10.35;;;;;;;;;;5033159;28;20549;-76
2022/11/18 13:58:36;;;;;;;19.13;10.43;;;;;;;;;;5029981;28;20044;-77
2022/11/18 14:01:04;;;;;;;21.63;11.45;;;;;;;;;;5030021;28;20045;-77
2022/11/18 14:03:33;;;;;;;21.42;11.68;;;;;;;;;;5027602;28;20057;-76
2022/11/18 14:06:01;;;;;;;18.58;11.23;;;;;;;;;;5029024;28;20507;-77
2022/11/18 14:08:31;;;;;;;19.08;11.63;;;;;;;;;;5029944;28;20077;-78
2022/11/18 14:10:59;;;;;;;24.50;12.23;;;;;;;;;;5029028;28;20130;-76
2022/11/18 14:13:27;;;;;;;23.25;12.45;;;;;;;;;;5027894;28;20052;-78
2022/11/18 14:15:56;;;;;;;21.15;11.63;;;;;;;;;;5030454;28;20656;-77
2022/11/18 14:18:31;;;;;;;21.38;11.38;;;;;;;;;;5025640;28;20822;-78
2022/11/18 14:20:59;;;;;;;20.58;11.13;;;;;;;;;;5031468;28;20059;-77
2022/11/18 14:23:32;;;;;;;23.27;12.52;;;;;;;;;;5030486;28;20063;-76
2022/11/18 14:26:00;;;;;;;26.85;14.30;;;;;;;;;;5028562;28;20059;-76
2022/11/18 14:28:28;;;;;;;25.67;14.25;;;;;;;;;;5030028;28;20498;-74
2022/11/18 14:30:57;;;;;;;24.83;13.48;;;;;;;;;;5044572;28;20118;-75
2022/11/18 14:33:25;;;;;;;24.00;12.73;;;;;;;;;;5024217;28;20518;-74
2022/11/18 14:35:54;;;;;;;22.13;11.95;;;;;;;;;;5028978;28;20678;-74
2022/11/18 14:38:22;;;;;;;21.30;11.75;;;;;;;;;;5030247;28;20053;-75
2022/11/18 14:40:56;;;;;;;23.05;11.57;;;;;;;;;;5027872;28;20135;-74
2022/11/18 14:43:24;;;;;;;20.33;11.45;;;;;;;;;;5028382;28;20057;-74
2022/11/18 14:45:53;;;;;;;22.90;11.90;;;;;;;;;;5028502;28;20399;-74
2022/11/18 14:48:22;;;;;;;23.50;11.73;;;;;;;;;;5027425;28;20114;-74
2022/11/18 14:50:49;;;;;;;23.55;11.65;;;;;;;;;;5029279;28;20056;-74
2022/11/18 14:53:16;;;;;;;19.83;11.27;;;;;;;;;;5027691;28;20376;-74